09XS weather

Baptist Medical Center Heliport
San Antonio, Texas, United States

Public forecast

Using degrees Fahrenheit for public forecast. Weather courtesy of forecast.io.

METAR (pilot weather report)

Closest report is Lackland Air Force Base, 5.5 nm (10.2 km) WSW. Retrieved 2019/07/17 18:56 UTC (42 minutes ago):

KSKF 171856Z 15011KT 10SM SCT050 SCT250 33/22 A3001 RMK AO2A SLP154 T03290223 $

TAF (pilot weather forecast)

Closest forecast is Lackland Air Force Base, 5.5 nm (10.2 km) WSW. Retrieved 2019/07/17 18:59 UTC (39 minutes ago):

TAF KSKF 171800Z 1718/1900 15012G18KT 9999 SCT050 SCT250 QNH2988INS BECMG 1723/1800 13012G18KT 9999 FEW060 FEW250 QNH2990INS TEMPO 1723/1804 14015G25KT BECMG 1807/1808 15009KT 9999 BKN010 QNH2995INS BECMG 1815/1816 16010KT 9999 SCT020 QNH2984INS TX36/1721Z TN25/1811Z